createdAt,value
2023-06-11T00:00:08.158Z,68.65
2023-06-11T00:00:18.899Z,68.76
2023-06-11T00:00:29.944Z,68.65
2023-06-11T00:00:40.913Z,68.76
2023-06-11T00:00:51.668Z,68.76
2023-06-11T00:01:02.704Z,68.65
2023-06-11T00:01:13.680Z,68.79
2023-06-11T00:01:24.442Z,68.76
2023-06-11T00:01:35.484Z,68.65
2023-06-11T00:01:46.463Z,68.69
2023-06-11T00:01:57.240Z,68.65
2023-06-11T00:02:08.323Z,68.65
2023-06-11T00:02:19.280Z,68.79
2023-06-11T00:02:30.123Z,68.76
2023-06-11T00:02:40.865Z,68.76
2023-06-11T00:02:51.944Z,68.85
2023-06-11T00:03:02.808Z,68.85
2023-06-11T00:03:13.383Z,68.89
2023-06-11T00:03:24.543Z,68.89
2023-06-11T00:03:35.517Z,68.79
2023-06-11T00:03:46.156Z,68.76
2023-06-11T00:03:56.812Z,68.79
2023-06-11T00:04:07.767Z,68.76
2023-06-11T00:04:18.381Z,68.76
2023-06-11T00:04:29.404Z,68.76
2023-06-11T00:04:40.192Z,68.79
2023-06-11T00:04:51.270Z,68.79
2023-06-11T00:05:01.793Z,68.79
2023-06-11T00:05:12.829Z,68.79
2023-06-11T00:05:23.490Z,68.79
2023-06-11T00:05:34.497Z,68.69
2023-06-11T00:05:45.217Z,68.79
2023-06-11T00:05:56.269Z,68.85
2023-06-11T00:06:07.221Z,68.99
2023-06-11T00:06:18.036Z,68.99
2023-06-11T00:06:28.526Z,68.99
2023-06-11T00:06:39.490Z,68.99
2023-06-11T00:06:50.295Z,68.99
2023-06-11T00:07:01.307Z,68.99
2023-06-11T00:07:12.276Z,69.09
2023-06-11T00:07:23.026Z,69.09
2023-06-11T00:07:34.075Z,68.99
2023-06-11T00:07:45.039Z,68.99
2023-06-11T00:07:55.803Z,69.09
2023-06-11T00:08:06.852Z,69.09
2023-06-11T00:08:17.823Z,69.09
2023-06-11T00:08:28.584Z,69.09
2023-06-11T00:08:39.624Z,69.09
2023-06-11T00:08:50.602Z,68.99
2023-06-11T00:09:01.361Z,68.99
2023-06-11T00:09:12.388Z,68.99
2023-06-11T00:09:23.355Z,69.09
2023-06-11T00:09:34.119Z,69.09
2023-06-11T00:09:45.156Z,69.09
2023-06-11T00:09:56.124Z,68.99
2023-06-11T00:10:06.893Z,68.99
2023-06-11T00:10:17.955Z,68.99
2023-06-11T00:10:28.909Z,68.89
2023-06-11T00:10:39.673Z,68.99
2023-06-11T00:10:50.711Z,69.09
2023-06-11T00:11:01.686Z,69.09
2023-06-11T00:11:12.445Z,69.19
2023-06-11T00:11:23.543Z,69.29
2023-06-11T00:11:34.487Z,69.29
2023-06-11T00:11:45.245Z,69.29
2023-06-11T00:11:56.339Z,69.29
2023-06-11T00:12:07.297Z,69.29
2023-06-11T00:12:18.059Z,69.29
2023-06-11T00:12:29.107Z,69.39
2023-06-11T00:12:40.063Z,69.49
2023-06-11T00:12:50.846Z,69.39
2023-06-11T00:13:01.886Z,69.39
2023-06-11T00:13:12.847Z,69.29
2023-06-11T00:13:23.613Z,69.39
2023-06-11T00:13:34.653Z,69.39
2023-06-11T00:13:45.618Z,69.39
2023-06-11T00:13:56.381Z,69.39
2023-06-11T00:14:07.431Z,69.39
2023-06-11T00:14:18.402Z,69.29
2023-06-11T00:14:29.169Z,69.29
2023-06-11T00:14:40.245Z,69.39
2023-06-11T00:14:51.165Z,69.39
2023-06-11T00:15:01.933Z,69.49
2023-06-11T00:15:13.181Z,69.49
2023-06-11T00:15:23.787Z,69.49
2023-06-11T00:15:34.528Z,69.49
2023-06-11T00:15:45.571Z,69.49
2023-06-11T00:15:56.630Z,69.59
2023-06-11T00:16:07.412Z,69.59
2023-06-11T00:16:18.461Z,69.59
2023-06-11T00:16:29.428Z,69.59
2023-06-11T00:16:40.197Z,69.49
2023-06-11T00:16:51.239Z,69.49
2023-06-11T00:17:02.230Z,69.49
2023-06-11T00:17:12.972Z,69.59
2023-06-11T00:17:24.038Z,69.59
2023-06-11T00:17:35.018Z,69.59
2023-06-11T00:17:45.812Z,69.73
2023-06-11T00:17:56.847Z,69.69
2023-06-11T00:18:07.926Z,69.82
2023-06-11T00:18:18.672Z,69.79
2023-06-11T00:18:29.704Z,69.92
2023-06-11T00:18:40.669Z,69.92
2023-06-11T00:18:51.436Z,69.82
2023-06-11T00:19:02.469Z,69.82
2023-06-11T00:19:13.440Z,69.82
2023-06-11T00:19:24.406Z,69.82
2023-06-11T00:19:34.916Z,69.82
2023-06-11T00:19:45.866Z,69.82
2023-06-11T00:19:56.629Z,69.79
2023-06-11T00:20:07.671Z,69.82
2023-06-11T00:20:18.637Z,69.82
2023-06-11T00:20:29.414Z,69.92
2023-06-11T00:20:40.444Z,69.92
2023-06-11T00:20:51.406Z,69.82
2023-06-11T00:21:02.181Z,69.92
2023-06-11T00:21:13.224Z,70.03
2023-06-11T00:21:24.182Z,70.12
2023-06-11T00:21:34.962Z,70.23
2023-06-11T00:21:46.003Z,70.32
2023-06-11T00:21:56.972Z,70.32
2023-06-11T00:22:07.737Z,70.43
2023-06-11T00:22:18.780Z,70.43
2023-06-11T00:22:29.744Z,70.53
2023-06-11T00:22:40.521Z,70.43
2023-06-11T00:22:51.560Z,70.43
2023-06-11T00:23:02.522Z,70.43
2023-06-11T00:23:13.286Z,70.43
2023-06-11T00:23:24.325Z,70.43
2023-06-11T00:23:35.341Z,70.53
2023-06-11T00:23:46.110Z,70.53
2023-06-11T00:23:57.155Z,70.53
2023-06-11T00:24:08.229Z,70.53
2023-06-11T00:24:19.178Z,70.53
2023-06-11T00:24:29.866Z,70.43
2023-06-11T00:24:40.831Z,70.43
2023-06-11T00:24:51.590Z,70.43
2023-06-11T00:25:02.641Z,70.43
2023-06-11T00:25:13.947Z,70.43
2023-06-11T00:25:24.256Z,70.32
2023-06-11T00:25:35.305Z,70.32
2023-06-11T00:25:47.920Z,70.43
2023-06-11T00:25:57.061Z,70.43
2023-06-11T00:26:08.108Z,70.32
2023-06-11T00:26:19.070Z,70.23
2023-06-11T00:26:29.866Z,70.23
2023-06-11T00:26:40.939Z,70.23
2023-06-11T00:26:51.896Z,70.23
2023-06-11T00:27:02.730Z,70.23
2023-06-11T00:27:13.216Z,70.23
2023-06-11T00:27:24.176Z,70.23
2023-06-11T00:27:34.964Z,70.23
2023-06-11T00:27:45.987Z,70.12
2023-06-11T00:27:56.948Z,70.23
2023-06-11T00:28:07.708Z,70.12
2023-06-11T00:28:18.746Z,70.12
2023-06-11T00:28:29.743Z,70.12
2023-06-11T00:28:40.490Z,70.12
2023-06-11T00:28:51.068Z,70.23
2023-06-11T00:29:02.039Z,70.32
2023-06-11T00:29:12.809Z,70.32
2023-06-11T00:29:23.857Z,70.32
2023-06-11T00:29:34.815Z,70.32
2023-06-11T00:29:45.626Z,70.43
2023-06-11T00:29:56.627Z,70.32
2023-06-11T00:30:07.674Z,70.32
2023-06-11T00:30:18.432Z,70.32
2023-06-11T00:30:29.458Z,70.23
2023-06-11T00:30:40.422Z,70.32
2023-06-11T00:30:51.190Z,70.32
2023-06-11T00:31:02.226Z,70.32
2023-06-11T00:31:13.240Z,70.43
2023-06-11T00:31:24.046Z,70.53
2023-06-11T00:31:35.060Z,70.53
2023-06-11T00:31:46.057Z,70.53
2023-06-11T00:31:56.822Z,70.63
2023-06-11T00:32:07.884Z,70.63
2023-06-11T00:32:18.842Z,70.63
2023-06-11T00:32:29.648Z,70.73
2023-06-11T00:32:40.705Z,70.83
2023-06-11T00:32:51.725Z,70.83
2023-06-11T00:33:02.498Z,70.73
2023-06-11T00:33:13.518Z,70.63
2023-06-11T00:33:24.485Z,70.63
2023-06-11T00:33:35.243Z,70.73
2023-06-11T00:33:46.336Z,70.83
2023-06-11T00:33:57.251Z,70.83
2023-06-11T00:34:08.026Z,70.93
2023-06-11T00:34:19.054Z,70.93
2023-06-11T00:34:30.037Z,70.93
2023-06-11T00:34:40.808Z,70.83
2023-06-11T00:34:51.838Z,70.73
2023-06-11T00:35:02.796Z,70.63
2023-06-11T00:35:13.962Z,70.53
2023-06-11T00:35:24.614Z,70.53
2023-06-11T00:35:35.605Z,70.63
2023-06-11T00:35:46.377Z,70.73
2023-06-11T00:35:57.416Z,70.73
2023-06-11T00:36:08.384Z,70.73
2023-06-11T00:36:19.157Z,70.63
2023-06-11T00:36:30.197Z,70.53
2023-06-11T00:36:41.160Z,70.63
2023-06-11T00:36:51.946Z,70.73
2023-06-11T00:37:02.984Z,70.73
2023-06-11T00:37:13.943Z,70.73
2023-06-11T00:37:24.720Z,70.63
2023-06-11T00:37:35.762Z,70.63
2023-06-11T00:37:46.720Z,70.53
2023-06-11T00:37:57.487Z,70.43
2023-06-11T00:38:08.525Z,70.43
2023-06-11T00:38:20.797Z,70.43
2023-06-11T00:38:30.463Z,70.43
2023-06-11T00:38:41.505Z,70.43
2023-06-11T00:38:52.475Z,70.43
2023-06-11T00:39:03.241Z,70.43
2023-06-11T00:39:14.276Z,70.43
2023-06-11T00:39:25.241Z,70.43
2023-06-11T00:39:36.002Z,70.43
2023-06-11T00:39:47.048Z,70.43
2023-06-11T00:39:58.006Z,70.32
2023-06-11T00:40:08.766Z,70.23
2023-06-11T00:40:19.806Z,70.23
2023-06-11T00:40:30.781Z,70.32
2023-06-11T00:40:41.531Z,70.32
2023-06-11T00:40:52.588Z,70.32
2023-06-11T00:41:03.546Z,70.32
2023-06-11T00:41:14.296Z,70.32
2023-06-11T00:41:25.339Z,70.43
2023-06-11T00:41:36.301Z,70.53
2023-06-11T00:41:47.160Z,70.53
2023-06-11T00:41:57.629Z,70.43
2023-06-11T00:42:08.590Z,70.32
2023-06-11T00:42:19.364Z,70.32
2023-06-11T00:42:30.409Z,70.32
2023-06-11T00:42:41.370Z,70.43
2023-06-11T00:42:52.130Z,70.43
2023-06-11T00:43:03.181Z,70.43
2023-06-11T00:43:14.139Z,70.63
2023-06-11T00:43:24.917Z,70.63
2023-06-11T00:43:35.946Z,70.53
2023-06-11T00:43:46.919Z,70.43
2023-06-11T00:43:57.670Z,70.43
2023-06-11T00:44:08.713Z,70.43
2023-06-11T00:44:19.673Z,70.53
2023-06-11T00:44:30.452Z,70.43
2023-06-11T00:44:41.483Z,70.43
2023-06-11T00:44:52.469Z,70.43
2023-06-11T00:45:03.208Z,70.43
2023-06-11T00:45:14.458Z,70.32
2023-06-11T00:45:24.837Z,70.32
2023-06-11T00:45:35.632Z,70.23
2023-06-11T00:45:46.679Z,70.23
2023-06-11T00:45:57.662Z,70.23
2023-06-11T00:46:08.441Z,70.23
2023-06-11T00:46:19.015Z,70.23
2023-06-11T00:46:29.979Z,70.32
2023-06-11T00:46:40.733Z,70.32
2023-06-11T00:46:51.770Z,70.32
2023-06-11T00:47:02.750Z,70.43
2023-06-11T00:47:13.519Z,70.43
2023-06-11T00:47:24.599Z,70.43
2023-06-11T00:47:35.634Z,70.43
2023-06-11T00:47:46.391Z,70.43
2023-06-11T00:47:57.443Z,70.43
2023-06-11T00:48:08.468Z,70.46
2023-06-11T00:48:19.216Z,70.43
2023-06-11T00:48:30.254Z,70.32
2023-06-11T00:48:41.210Z,70.23
2023-06-11T00:48:51.976Z,70.23
2023-06-11T00:49:03.013Z,70.23
2023-06-11T00:49:13.976Z,70.32
2023-06-11T00:49:24.753Z,70.32
2023-06-11T00:49:35.788Z,70.32
2023-06-11T00:49:46.747Z,70.32
2023-06-11T00:49:57.507Z,70.32
2023-06-11T00:50:08.561Z,70.43
2023-06-11T00:50:19.513Z,70.43
2023-06-11T00:50:30.281Z,70.43
2023-06-11T00:50:41.328Z,70.43
2023-06-11T00:50:52.306Z,70.43
2023-06-11T00:51:03.055Z,70.32
2023-06-11T00:51:14.095Z,70.32
2023-06-11T00:51:25.060Z,70.23
2023-06-11T00:51:35.822Z,70.12
2023-06-11T00:51:46.864Z,70.12
2023-06-11T00:51:57.860Z,70.32
2023-06-11T00:52:09.009Z,70.32
2023-06-11T00:52:19.340Z,70.32
2023-06-11T00:52:30.305Z,70.32
2023-06-11T00:52:42.385Z,70.32
2023-06-11T00:52:51.792Z,70.36
2023-06-11T00:53:02.757Z,70.43
2023-06-11T00:53:13.519Z,70.53
2023-06-11T00:53:24.573Z,70.53
2023-06-11T00:53:35.548Z,70.53
2023-06-11T00:53:46.338Z,70.53
2023-06-11T00:53:57.379Z,70.53
2023-06-11T00:54:08.320Z,70.43
2023-06-11T00:54:19.094Z,70.63
2023-06-11T00:54:30.122Z,70.63
2023-06-11T00:54:41.088Z,70.63
2023-06-11T00:54:51.861Z,70.73
2023-06-11T00:55:02.914Z,70.63
2023-06-11T00:55:14.113Z,70.53
2023-06-11T00:55:25.024Z,70.63
2023-06-11T00:55:36.064Z,70.56
2023-06-11T00:55:47.039Z,70.53
2023-06-11T00:55:57.836Z,70.56
2023-06-11T00:56:08.333Z,70.53
2023-06-11T00:56:19.295Z,70.53
2023-06-11T00:56:30.066Z,70.43
2023-06-11T00:56:41.103Z,70.32
2023-06-11T00:56:52.063Z,70.23
2023-06-11T00:57:02.829Z,70.32
2023-06-11T00:57:13.897Z,70.32
2023-06-11T00:57:24.841Z,70.32
2023-06-11T00:57:35.645Z,70.32
2023-06-11T00:57:46.686Z,70.36
2023-06-11T00:57:57.650Z,70.23
2023-06-11T00:58:08.440Z,70.23
2023-06-11T00:58:19.538Z,70.23
2023-06-11T00:58:30.064Z,70.32
2023-06-11T00:58:40.832Z,70.32
2023-06-11T00:58:51.929Z,70.32
2023-06-11T00:59:02.401Z,70.32
2023-06-11T00:59:13.183Z,70.32
2023-06-11T00:59:24.217Z,70.36
2023-06-11T00:59:35.174Z,70.23
2023-06-11T00:59:45.940Z,70.32
2023-06-11T00:59:57.113Z,70.23
2023-06-11T01:00:07.537Z,70.23
2023-06-11T01:00:18.289Z,70.23
2023-06-11T01:00:29.375Z,70.32
2023-06-11T01:00:40.365Z,70.36
2023-06-11T01:00:51.138Z,70.32
2023-06-11T01:01:02.198Z,70.23
2023-06-11T01:01:13.181Z,70.23
2023-06-11T01:01:24.005Z,70.23
2023-06-11T01:01:34.609Z,70.32
2023-06-11T01:01:45.514Z,70.32
2023-06-11T01:01:56.287Z,70.36
2023-06-11T01:02:07.327Z,70.32
2023-06-11T01:02:18.353Z,70.36
2023-06-11T01:02:29.083Z,70.32
2023-06-11T01:02:40.179Z,70.46
2023-06-11T01:02:51.261Z,70.46
2023-06-11T01:03:02.182Z,70.46
2023-06-11T01:03:12.676Z,70.36
2023-06-11T01:03:23.647Z,70.36
2023-06-11T01:03:34.449Z,70.36
2023-06-11T01:03:45.003Z,70.36
2023-06-11T01:03:55.991Z,70.46
2023-06-11T01:04:06.814Z,70.36
2023-06-11T01:04:17.465Z,70.26
2023-06-11T01:04:28.139Z,70.36
2023-06-11T01:04:38.945Z,70.32
2023-06-11T01:04:49.575Z,70.26
2023-06-11T01:05:00.620Z,70.26
2023-06-11T01:05:11.733Z,70.26
2023-06-11T01:05:22.758Z,70.36
2023-06-11T01:05:33.544Z,70.36
2023-06-11T01:05:44.567Z,70.36
2023-06-11T01:05:55.098Z,70.36
2023-06-11T01:06:06.063Z,70.36
2023-06-11T01:06:16.820Z,70.26
2023-06-11T01:06:27.864Z,70.26
2023-06-11T01:06:38.823Z,70.36
2023-06-11T01:06:49.609Z,70.46
2023-06-11T01:07:00.657Z,70.46
2023-06-11T01:07:11.616Z,70.46
2023-06-11T01:07:22.387Z,70.46
2023-06-11T01:07:33.436Z,70.46
2023-06-11T01:07:44.388Z,70.46
2023-06-11T01:07:55.172Z,70.46
2023-06-11T01:08:06.214Z,70.36
2023-06-11T01:08:17.172Z,70.26
2023-06-11T01:08:27.941Z,70.26
2023-06-11T01:08:38.981Z,70.36
2023-06-11T01:08:49.959Z,70.36
2023-06-11T01:09:00.707Z,70.36
2023-06-11T01:09:11.781Z,70.46
2023-06-11T01:09:22.745Z,70.56
2023-06-11T01:09:33.505Z,70.66
2023-06-11T01:09:44.572Z,70.66
2023-06-11T01:09:55.511Z,70.66
2023-06-11T01:10:06.281Z,70.56
2023-06-11T01:10:17.314Z,70.66
2023-06-11T01:10:28.280Z,70.66
2023-06-11T01:10:39.037Z,70.66
2023-06-11T01:10:50.086Z,70.66
2023-06-11T01:11:01.110Z,70.56
2023-06-11T01:11:11.848Z,70.56
2023-06-11T01:11:22.985Z,70.56
2023-06-11T01:11:34.007Z,70.66
2023-06-11T01:11:44.760Z,70.66
2023-06-11T01:11:55.808Z,70.66
2023-06-11T01:12:06.766Z,70.66
2023-06-11T01:12:17.527Z,70.66
2023-06-11T01:12:28.607Z,70.56
2023-06-11T01:12:39.550Z,70.56
2023-06-11T01:12:50.320Z,70.56
2023-06-11T01:13:01.369Z,70.56
2023-06-11T01:13:12.325Z,70.56
2023-06-11T01:13:23.133Z,70.56
2023-06-11T01:13:34.135Z,70.56
2023-06-11T01:13:45.127Z,70.66
2023-06-11T01:13:55.887Z,70.66
2023-06-11T01:14:06.922Z,70.66
2023-06-11T01:14:17.917Z,70.66
2023-06-11T01:14:28.676Z,70.66
2023-06-11T01:14:39.749Z,70.76
2023-06-11T01:14:50.680Z,70.76
2023-06-11T01:15:01.463Z,70.66
2023-06-11T01:15:12.600Z,70.66
2023-06-11T01:15:23.037Z,70.56
2023-06-11T01:15:33.820Z,70.56
2023-06-11T01:15:44.846Z,70.66
2023-06-11T01:15:55.805Z,70.76
2023-06-11T01:16:06.573Z,70.76
2023-06-11T01:16:17.613Z,70.76
2023-06-11T01:16:28.633Z,70.76
2023-06-11T01:16:39.397Z,70.66
2023-06-11T01:16:50.517Z,70.66
2023-06-11T01:17:01.530Z,70.56
2023-06-11T01:17:12.402Z,70.66
2023-06-11T01:17:23.023Z,70.66
2023-06-11T01:17:34.097Z,70.66
2023-06-11T01:17:44.894Z,70.66
2023-06-11T01:17:55.441Z,70.76
2023-06-11T01:18:06.489Z,70.76
2023-06-11T01:18:17.234Z,70.66
2023-06-11T01:18:28.285Z,70.66
2023-06-11T01:18:39.248Z,70.66
2023-06-11T01:18:50.005Z,70.56
2023-06-11T01:19:01.057Z,70.56
2023-06-11T01:19:12.016Z,70.56
2023-06-11T01:19:22.773Z,70.56
2023-06-11T01:19:33.834Z,70.56
2023-06-11T01:19:44.791Z,70.56
2023-06-11T01:19:55.554Z,70.56
2023-06-11T01:20:06.602Z,70.66
2023-06-11T01:20:17.558Z,70.56
2023-06-11T01:20:28.308Z,70.56
2023-06-11T01:20:39.353Z,70.46
2023-06-11T01:20:50.322Z,70.36
2023-06-11T01:21:01.082Z,70.46
2023-06-11T01:21:12.122Z,70.46
2023-06-11T01:21:23.117Z,70.36
2023-06-11T01:21:33.870Z,70.36
2023-06-11T01:21:44.914Z,70.36
2023-06-11T01:21:55.871Z,70.36
2023-06-11T01:22:06.647Z,70.36
2023-06-11T01:22:17.680Z,70.36
2023-06-11T01:22:28.640Z,70.36
2023-06-11T01:22:39.419Z,70.36
2023-06-11T01:22:50.468Z,70.36
2023-06-11T01:23:01.430Z,70.46
2023-06-11T01:23:12.197Z,70.46
2023-06-11T01:23:23.234Z,70.56
2023-06-11T01:23:34.210Z,70.56
2023-06-11T01:23:45.002Z,70.56
2023-06-11T01:23:55.554Z,70.46
2023-06-11T01:24:06.572Z,70.46
2023-06-11T01:24:17.579Z,70.46
2023-06-11T01:24:28.069Z,70.46
2023-06-11T01:24:39.037Z,70.46
2023-06-11T01:24:49.799Z,70.46
2023-06-11T01:25:00.879Z,70.46
2023-06-11T01:25:12.053Z,70.46
2023-06-11T01:25:22.959Z,70.46
2023-06-11T01:25:33.998Z,70.56
2023-06-11T01:25:44.960Z,70.56
2023-06-11T01:25:55.737Z,70.56
2023-06-11T01:26:06.777Z,70.66
2023-06-11T01:26:17.806Z,70.66
2023-06-11T01:26:28.512Z,70.56
2023-06-11T01:26:39.555Z,70.56
2023-06-11T01:26:50.514Z,70.56
2023-06-11T01:27:01.280Z,70.56
2023-06-11T01:27:12.323Z,70.56
2023-06-11T01:27:23.284Z,70.66
2023-06-11T01:27:34.049Z,70.66
2023-06-11T01:27:45.137Z,70.76
2023-06-11T01:27:56.072Z,70.76
2023-06-11T01:28:06.824Z,70.76
2023-06-11T01:28:17.906Z,70.86
2023-06-11T01:28:28.843Z,70.79
2023-06-11T01:28:39.612Z,70.79
2023-06-11T01:28:50.648Z,70.89
2023-06-11T01:29:01.608Z,70.89
2023-06-11T01:29:12.400Z,70.89
2023-06-11T01:29:23.436Z,70.89
2023-06-11T01:29:34.407Z,71.00
2023-06-11T01:29:45.163Z,71.00
2023-06-11T01:29:56.237Z,71.00
2023-06-11T01:30:07.200Z,71.00
2023-06-11T01:30:17.945Z,71.00
2023-06-11T01:30:28.994Z,71.00
2023-06-11T01:30:39.972Z,71.09
2023-06-11T01:30:50.743Z,71.09
2023-06-11T01:31:01.898Z,71.09
2023-06-11T01:31:12.878Z,71.09
2023-06-11T01:31:23.634Z,71.09
2023-06-11T01:31:34.718Z,71.09
2023-06-11T01:31:45.843Z,71.09
2023-06-11T01:31:56.604Z,71.09
2023-06-11T01:32:07.649Z,71.09
2023-06-11T01:32:18.616Z,71.09
2023-06-11T01:32:29.669Z,71.09
2023-06-11T01:32:40.224Z,71.09
2023-06-11T01:32:51.241Z,71.20
2023-06-11T01:33:02.064Z,71.30
2023-06-11T01:33:12.619Z,71.30
2023-06-11T01:33:23.596Z,71.40
2023-06-11T01:33:34.364Z,71.40
2023-06-11T01:33:45.403Z,71.30
2023-06-11T01:33:56.363Z,71.30
2023-06-11T01:34:07.140Z,71.30
2023-06-11T01:34:18.180Z,71.30
2023-06-11T01:34:29.134Z,71.30
2023-06-11T01:34:39.904Z,71.30
2023-06-11T01:34:50.949Z,71.20
2023-06-11T01:35:01.907Z,71.20
2023-06-11T01:35:12.798Z,71.20
2023-06-11T01:35:23.336Z,71.23
2023-06-11T01:35:34.302Z,71.33
2023-06-11T01:35:45.064Z,71.40
2023-06-11T01:35:56.108Z,71.43
2023-06-11T01:36:07.144Z,71.53
2023-06-11T01:36:17.879Z,71.63
2023-06-11T01:36:28.928Z,71.80
2023-06-11T01:36:39.882Z,71.94
2023-06-11T01:36:50.650Z,72.03
2023-06-11T01:37:01.706Z,72.13
2023-06-11T01:37:12.671Z,72.13
2023-06-11T01:37:23.438Z,72.13
2023-06-11T01:37:34.488Z,72.24
2023-06-11T01:37:45.441Z,72.24
2023-06-11T01:37:56.222Z,72.24
2023-06-11T01:38:07.282Z,72.13
2023-06-11T01:38:18.225Z,72.13
2023-06-11T01:38:29.006Z,72.13
2023-06-11T01:38:40.045Z,72.13
2023-06-11T01:38:51.014Z,72.13
2023-06-11T01:39:01.779Z,72.03
2023-06-11T01:39:13.058Z,72.03
2023-06-11T01:39:23.441Z,72.03
2023-06-11T01:39:34.206Z,72.03
2023-06-11T01:39:45.258Z,72.03
2023-06-11T01:39:56.207Z,72.03
2023-06-11T01:40:06.982Z,72.03
2023-06-11T01:40:18.025Z,72.13
2023-06-11T01:40:28.986Z,72.13
2023-06-11T01:40:39.753Z,72.13
2023-06-11T01:40:50.788Z,72.13
2023-06-11T01:41:01.752Z,72.13
2023-06-11T01:41:12.515Z,72.03
2023-06-11T01:41:23.557Z,71.83
2023-06-11T01:41:34.546Z,71.83
2023-06-11T01:41:45.303Z,71.73
2023-06-11T01:41:56.336Z,71.73
2023-06-11T01:42:07.301Z,71.73
2023-06-11T01:42:18.066Z,71.73
2023-06-11T01:42:29.104Z,71.83
2023-06-11T01:42:40.069Z,71.73
2023-06-11T01:42:50.833Z,71.83
2023-06-11T01:43:01.883Z,71.83
2023-06-11T01:43:12.849Z,71.73
2023-06-11T01:43:23.608Z,71.73
2023-06-11T01:43:34.667Z,71.73
2023-06-11T01:43:45.625Z,71.73
2023-06-11T01:43:56.389Z,71.83
2023-06-11T01:44:07.439Z,71.73
2023-06-11T01:44:18.396Z,71.73
2023-06-11T01:44:29.169Z,71.83
2023-06-11T01:44:40.221Z,71.83
2023-06-11T01:44:51.168Z,71.83
2023-06-11T01:45:01.941Z,71.83
2023-06-11T01:45:13.139Z,71.83
2023-06-11T01:45:23.580Z,71.94
2023-06-11T01:45:34.343Z,71.94
2023-06-11T01:45:45.385Z,71.94
2023-06-11T01:45:56.348Z,71.94
2023-06-11T01:46:07.139Z,71.83
2023-06-11T01:46:18.220Z,71.83
2023-06-11T01:46:29.176Z,71.83
2023-06-11T01:46:39.974Z,71.83
2023-06-11T01:46:50.626Z,71.94
2023-06-11T01:47:01.355Z,71.94
2023-06-11T01:47:12.173Z,71.94
2023-06-11T01:47:23.262Z,72.03
2023-06-11T01:47:34.219Z,72.03
2023-06-11T01:47:45.028Z,72.13
2023-06-11T01:47:56.080Z,72.13
2023-06-11T01:48:07.118Z,72.13
2023-06-11T01:48:17.894Z,72.24
2023-06-11T01:48:28.927Z,72.33
2023-06-11T01:48:39.889Z,72.24
2023-06-11T01:48:50.665Z,72.13
2023-06-11T01:49:01.705Z,72.13
2023-06-11T01:49:12.664Z,72.13
2023-06-11T01:49:23.427Z,72.03
2023-06-11T01:49:34.467Z,72.03
2023-06-11T01:49:45.429Z,72.03
2023-06-11T01:49:56.191Z,72.03
2023-06-11T01:50:07.250Z,71.94
2023-06-11T01:50:18.205Z,72.03
2023-06-11T01:50:28.963Z,72.03
2023-06-11T01:50:40.008Z,72.03
2023-06-11T01:50:50.974Z,72.03
2023-06-11T01:51:01.738Z,71.94
2023-06-11T01:51:12.774Z,72.03
2023-06-11T01:51:23.741Z,72.24
2023-06-11T01:51:34.503Z,72.33
2023-06-11T01:51:45.544Z,72.33
2023-06-11T01:51:56.516Z,72.24
2023-06-11T01:52:07.273Z,72.24
2023-06-11T01:52:18.330Z,72.24
2023-06-11T01:52:29.276Z,72.24
2023-06-11T01:52:40.045Z,72.03
2023-06-11T01:52:51.098Z,72.03
2023-06-11T01:53:02.044Z,72.13
2023-06-11T01:53:12.820Z,72.03
2023-06-11T01:53:23.874Z,72.03
2023-06-11T01:53:34.824Z,71.94
2023-06-11T01:53:45.605Z,71.83
2023-06-11T01:53:56.636Z,71.94
2023-06-11T01:54:07.601Z,71.94
2023-06-11T01:54:18.367Z,71.83
2023-06-11T01:54:29.409Z,71.94
2023-06-11T01:54:40.369Z,72.03
2023-06-11T01:54:51.132Z,72.03
2023-06-11T01:55:02.173Z,72.13
2023-06-11T01:55:13.414Z,72.03
2023-06-11T01:55:24.273Z,71.83
2023-06-11T01:55:35.326Z,71.83
2023-06-11T01:55:46.284Z,71.83
2023-06-11T01:55:57.050Z,71.83
2023-06-11T01:56:08.093Z,71.83
2023-06-11T01:56:19.123Z,71.73
2023-06-11T01:56:29.856Z,71.73
2023-06-11T01:56:40.893Z,71.83
2023-06-11T01:56:51.857Z,71.83
2023-06-11T01:57:02.623Z,71.83
2023-06-11T01:57:13.665Z,71.73
2023-06-11T01:57:24.630Z,71.83
2023-06-11T01:57:35.404Z,71.94
2023-06-11T01:57:46.451Z,71.90
2023-06-11T01:57:57.401Z,71.94
2023-06-11T01:58:08.185Z,71.94
2023-06-11T01:58:19.214Z,71.94
2023-06-11T01:58:30.177Z,72.03
2023-06-11T01:58:40.945Z,72.13
2023-06-11T01:58:51.998Z,72.03
2023-06-11T01:59:02.969Z,72.03
2023-06-11T01:59:13.748Z,71.90
2023-06-11T01:59:24.770Z,71.83
2023-06-11T01:59:35.736Z,71.83
2023-06-11T01:59:46.502Z,71.83
2023-06-11T01:59:57.554Z,71.80
2023-06-11T02:00:08.511Z,71.83
2023-06-11T02:00:19.292Z,71.83
2023-06-11T02:00:30.319Z,71.73
2023-06-11T02:00:41.284Z,71.73
2023-06-11T02:00:52.070Z,71.73
2023-06-11T02:01:03.093Z,71.73
2023-06-11T02:01:14.105Z,71.70
2023-06-11T02:01:24.877Z,71.73
2023-06-11T02:01:35.918Z,71.70
2023-06-11T02:01:46.890Z,71.80
2023-06-11T02:01:57.677Z,71.80
2023-06-11T02:02:08.725Z,71.83
2023-06-11T02:02:19.697Z,71.83
2023-06-11T02:02:30.479Z,71.80
2023-06-11T02:02:41.685Z,71.73
2023-06-11T02:02:52.187Z,71.63
2023-06-11T02:03:03.156Z,71.73
2023-06-11T02:03:13.928Z,71.83
2023-06-11T02:03:24.732Z,71.94
2023-06-11T02:03:35.644Z,71.90
2023-06-11T02:03:46.206Z,72.03
2023-06-11T02:03:56.734Z,71.90
2023-06-11T02:04:07.576Z,71.94
2023-06-11T02:04:18.152Z,71.83
2023-06-11T02:04:29.110Z,71.83
2023-06-11T02:04:39.892Z,71.83
2023-06-11T02:04:50.917Z,71.94
2023-06-11T02:05:01.887Z,71.90
2023-06-11T02:05:13.037Z,71.83
2023-06-11T02:05:23.712Z,71.83
2023-06-11T02:05:34.681Z,71.60
2023-06-11T02:05:45.455Z,71.60
2023-06-11T02:05:56.486Z,71.63
2023-06-11T02:06:07.451Z,71.63
2023-06-11T02:06:18.214Z,71.63
2023-06-11T02:06:29.249Z,71.73
2023-06-11T02:06:40.209Z,71.94
2023-06-11T02:06:50.976Z,71.94
2023-06-11T02:07:02.016Z,71.83
2023-06-11T02:07:12.980Z,71.90
2023-06-11T02:07:23.748Z,71.90
2023-06-11T02:07:34.810Z,71.80
2023-06-11T02:07:45.756Z,71.83
2023-06-11T02:07:56.509Z,71.70
2023-06-11T02:08:07.571Z,71.70
2023-06-11T02:08:18.520Z,71.70
2023-06-11T02:08:29.302Z,71.73
2023-06-11T02:08:40.339Z,71.70
2023-06-11T02:08:51.305Z,71.83
2023-06-11T02:09:02.079Z,71.70
2023-06-11T02:09:13.118Z,71.70
2023-06-11T02:09:24.096Z,71.73
2023-06-11T02:09:34.843Z,71.70
2023-06-11T02:09:45.885Z,71.80
2023-06-11T02:09:56.851Z,71.83
2023-06-11T02:10:07.621Z,71.70
2023-06-11T02:10:18.654Z,71.63
2023-06-11T02:10:29.632Z,71.63
2023-06-11T02:10:40.441Z,71.60
2023-06-11T02:10:51.527Z,71.60
2023-06-11T02:11:02.490Z,71.73
2023-06-11T02:11:13.259Z,71.70
2023-06-11T02:11:24.304Z,71.73
2023-06-11T02:11:35.285Z,71.73
2023-06-11T02:11:46.072Z,71.60
2023-06-11T02:11:56.630Z,71.60
2023-06-11T02:12:07.598Z,71.60
2023-06-11T02:12:18.360Z,71.60
2023-06-11T02:12:29.397Z,71.73
2023-06-11T02:12:40.362Z,71.83
2023-06-11T02:12:51.132Z,71.90
2023-06-11T02:13:02.168Z,71.94
2023-06-11T02:13:13.129Z,71.80
2023-06-11T02:13:23.889Z,71.80
2023-06-11T02:13:34.943Z,71.70
2023-06-11T02:13:45.917Z,71.60
2023-06-11T02:13:56.706Z,71.60
2023-06-11T02:14:07.734Z,71.50
2023-06-11T02:14:18.713Z,71.50
2023-06-11T02:14:29.485Z,71.60
2023-06-11T02:14:40.518Z,71.70
2023-06-11T02:14:51.473Z,71.83
2023-06-11T02:15:02.240Z,71.80
2023-06-11T02:15:13.616Z,71.80
2023-06-11T02:15:23.965Z,71.73
2023-06-11T02:15:34.719Z,71.70
2023-06-11T02:15:45.760Z,71.73
2023-06-11T02:15:56.778Z,71.73
2023-06-11T02:16:07.526Z,71.80
2023-06-11T02:16:18.581Z,71.70
2023-06-11T02:16:29.573Z,71.80
2023-06-11T02:16:40.372Z,71.80
2023-06-11T02:16:51.505Z,71.80
2023-06-11T02:17:01.953Z,71.70
2023-06-11T02:17:12.727Z,71.70
2023-06-11T02:17:23.804Z,71.70
2023-06-11T02:17:34.753Z,71.60
2023-06-11T02:17:45.517Z,71.60
2023-06-11T02:17:56.573Z,71.60
2023-06-11T02:18:07.606Z,71.70
2023-06-11T02:18:18.364Z,71.60
2023-06-11T02:18:29.405Z,71.63
2023-06-11T02:18:40.383Z,71.80
2023-06-11T02:18:51.153Z,71.90
2023-06-11T02:19:02.192Z,71.90
2023-06-11T02:19:13.214Z,72.00
2023-06-11T02:19:23.977Z,71.90
2023-06-11T02:19:35.018Z,71.80
2023-06-11T02:19:45.987Z,71.80
2023-06-11T02:19:56.758Z,71.73
2023-06-11T02:20:07.793Z,71.60
2023-06-11T02:20:18.799Z,71.60
2023-06-11T02:20:29.568Z,71.50